createdAt,value
2017-10-14T00:01:34.828Z,17.40
2017-10-14T00:04:03.104Z,17.50
2017-10-14T00:06:32.088Z,17.50
2017-10-14T00:09:00.412Z,17.60
2017-10-14T00:11:28.684Z,17.20
2017-10-14T00:13:56.961Z,17.20
2017-10-14T00:16:25.237Z,17.30
2017-10-14T00:18:53.533Z,17.40
2017-10-14T00:21:21.820Z,17.50
2017-10-14T00:23:50.083Z,17.70
2017-10-14T00:26:18.786Z,17.80
2017-10-14T00:28:47.079Z,17.80
2017-10-14T00:31:15.336Z,17.90
2017-10-14T00:33:43.638Z,18.00
2017-10-14T00:36:11.893Z,18.10
2017-10-14T00:38:40.190Z,18.10
2017-10-14T00:41:08.449Z,17.90
2017-10-14T00:43:36.718Z,17.90
2017-10-14T00:46:04.997Z,17.90
2017-10-14T00:48:33.294Z,17.70
2017-10-14T00:51:01.567Z,17.70
2017-10-14T00:53:30.077Z,17.70
2017-10-14T00:55:58.452Z,17.80
2017-10-14T00:58:27.432Z,18.00
2017-10-14T01:00:56.132Z,18.00
2017-10-14T01:03:24.419Z,18.00
2017-10-14T01:05:52.688Z,18.00
2017-10-14T01:08:21.005Z,18.00
2017-10-14T01:10:49.292Z,18.10
2017-10-14T01:13:17.588Z,18.10
2017-10-14T01:15:45.884Z,18.10
2017-10-14T01:18:14.614Z,18.10
2017-10-14T01:20:43.629Z,18.10
2017-10-14T01:23:11.940Z,17.90
2017-10-14T01:25:40.224Z,17.70
2017-10-14T01:28:08.534Z,17.50
2017-10-14T01:30:37.124Z,17.60
2017-10-14T01:33:05.455Z,17.70
2017-10-14T01:35:33.768Z,17.70
2017-10-14T01:38:02.025Z,17.70
2017-10-14T01:40:30.347Z,17.70
2017-10-14T01:42:58.843Z,17.80
2017-10-14T01:45:27.188Z,17.70
2017-10-14T01:47:55.698Z,17.70
2017-10-14T01:50:23.994Z,17.50
2017-10-14T01:52:52.249Z,17.50
2017-10-14T01:55:20.521Z,17.60
2017-10-14T01:57:48.795Z,17.70
2017-10-14T02:00:17.050Z,17.80
2017-10-14T02:02:46.204Z,17.80
2017-10-14T02:05:14.900Z,17.90
2017-10-14T02:07:43.225Z,17.90
2017-10-14T02:10:11.500Z,18.00
2017-10-14T02:12:39.772Z,18.00
2017-10-14T02:15:08.333Z,18.00
2017-10-14T02:17:36.829Z,18.00
2017-10-14T02:20:05.211Z,18.00
2017-10-14T02:22:33.557Z,18.10
2017-10-14T02:25:02.091Z,18.10
2017-10-14T02:27:30.416Z,18.10
2017-10-14T02:29:58.693Z,18.00
2017-10-14T02:32:27.229Z,18.00
2017-10-14T02:34:55.504Z,17.90
2017-10-14T02:37:23.790Z,17.80
2017-10-14T02:39:52.445Z,17.70
2017-10-14T02:42:20.744Z,17.70
2017-10-14T02:44:49.410Z,17.70
2017-10-14T02:47:17.713Z,17.70
2017-10-14T02:49:46.040Z,17.70
2017-10-14T02:52:14.315Z,17.70
2017-10-14T02:54:42.600Z,17.50
2017-10-14T02:57:10.966Z,17.40
2017-10-14T02:59:39.228Z,17.40
2017-10-14T03:02:07.556Z,17.50
2017-10-14T03:04:35.832Z,17.60
2017-10-14T03:07:04.108Z,17.70
2017-10-14T03:09:33.259Z,17.80
2017-10-14T03:12:01.754Z,17.90
2017-10-14T03:14:30.113Z,17.80
2017-10-14T03:16:58.501Z,17.80
2017-10-14T03:19:26.777Z,17.90
2017-10-14T03:21:56.095Z,18.00
2017-10-14T03:24:32.030Z,18.00
2017-10-14T03:27:02.197Z,18.00
2017-10-14T03:29:30.920Z,18.10
2017-10-14T03:31:59.168Z,18.10
2017-10-14T03:34:27.423Z,18.20
2017-10-14T03:36:55.719Z,18.30
2017-10-14T03:39:23.968Z,18.30
2017-10-14T03:41:52.226Z,18.30
2017-10-14T03:44:20.505Z,18.30
2017-10-14T03:46:48.986Z,18.30
2017-10-14T03:49:17.243Z,18.30
2017-10-14T03:51:45.532Z,18.30
2017-10-14T03:54:13.813Z,18.10
2017-10-14T03:56:42.087Z,18.00
2017-10-14T03:59:11.186Z,18.00
2017-10-14T04:01:39.515Z,18.00
2017-10-14T04:04:07.769Z,18.00
2017-10-14T04:06:36.050Z,17.90
2017-10-14T04:09:04.342Z,17.90
2017-10-14T04:11:33.026Z,18.00
2017-10-14T04:14:01.269Z,18.00
2017-10-14T04:16:29.523Z,18.10
2017-10-14T04:18:58.005Z,18.10
2017-10-14T04:21:26.444Z,18.20
2017-10-14T04:23:54.950Z,18.10
2017-10-14T04:26:23.491Z,18.00
2017-10-14T04:28:51.759Z,18.10
2017-10-14T04:31:20.007Z,18.10
2017-10-14T04:33:48.293Z,18.10
2017-10-14T04:36:16.560Z,18.20
2017-10-14T04:38:44.841Z,18.20
2017-10-14T04:41:13.096Z,18.20
2017-10-14T04:43:41.374Z,18.20
2017-10-14T04:46:09.672Z,18.20
2017-10-14T04:48:38.329Z,18.20
2017-10-14T04:51:06.568Z,18.20
2017-10-14T04:53:34.856Z,18.10
2017-10-14T04:56:03.831Z,18.20
2017-10-14T04:58:32.104Z,18.20
2017-10-14T05:01:00.371Z,18.20
2017-10-14T05:03:28.644Z,18.20
2017-10-14T05:05:57.083Z,18.20
2017-10-14T05:08:25.333Z,18.20
2017-10-14T05:10:53.989Z,18.10
2017-10-14T05:13:22.474Z,18.10
2017-10-14T05:15:50.812Z,18.10
2017-10-14T05:18:19.060Z,18.00
2017-10-14T05:20:47.322Z,17.90
2017-10-14T05:23:15.584Z,18.00
2017-10-14T05:25:43.856Z,18.00
2017-10-14T05:28:13.089Z,18.00
2017-10-14T05:30:41.756Z,18.10
2017-10-14T05:33:10.509Z,18.10
2017-10-14T05:35:38.779Z,18.20
2017-10-14T05:38:07.067Z,18.20
2017-10-14T05:40:36.374Z,18.20
2017-10-14T05:43:04.648Z,18.30
2017-10-14T05:45:33.268Z,18.30
2017-10-14T05:48:01.963Z,18.10
2017-10-14T05:50:30.239Z,18.20
2017-10-14T05:52:58.518Z,18.20
2017-10-14T05:55:26.773Z,18.20
2017-10-14T05:57:55.420Z,18.10
2017-10-14T06:00:24.089Z,18.10
2017-10-14T06:02:52.351Z,18.10
2017-10-14T06:05:20.643Z,18.10
2017-10-14T06:07:48.980Z,18.10
2017-10-14T06:10:17.636Z,18.20
2017-10-14T06:12:45.899Z,18.20
2017-10-14T06:15:14.168Z,18.10
2017-10-14T06:17:42.420Z,18.20
2017-10-14T06:20:10.712Z,18.30
2017-10-14T06:22:38.975Z,18.30
2017-10-14T06:25:07.222Z,18.40
2017-10-14T06:27:35.505Z,18.30
2017-10-14T06:30:04.217Z,18.30
2017-10-14T06:32:32.521Z,18.30
2017-10-14T06:35:00.977Z,18.30
2017-10-14T06:37:29.237Z,18.30
2017-10-14T06:39:57.476Z,18.20
2017-10-14T06:42:25.752Z,18.10
2017-10-14T06:44:54.440Z,18.10
2017-10-14T06:47:22.700Z,18.10
2017-10-14T06:49:51.093Z,18.20
2017-10-14T06:52:19.730Z,18.40
2017-10-14T06:54:48.011Z,18.40
2017-10-14T06:57:17.429Z,18.40
2017-10-14T06:59:45.730Z,18.40
2017-10-14T07:02:13.971Z,18.40
2017-10-14T07:04:42.255Z,18.40
2017-10-14T07:07:10.533Z,18.40
2017-10-14T07:09:38.813Z,18.40
2017-10-14T07:12:07.086Z,18.30
2017-10-14T07:14:35.352Z,18.30
2017-10-14T07:17:03.663Z,18.40
2017-10-14T07:19:31.981Z,18.40
2017-10-14T07:22:00.261Z,18.50
2017-10-14T07:24:28.571Z,18.50
2017-10-14T07:26:56.833Z,18.50
2017-10-14T07:29:25.108Z,18.70
2017-10-14T07:31:53.398Z,18.80
2017-10-14T07:34:21.680Z,18.90
2017-10-14T07:36:50.071Z,18.90
2017-10-14T07:39:18.351Z,18.90
2017-10-14T07:41:46.604Z,19.00
2017-10-14T07:44:14.921Z,19.00
2017-10-14T07:46:43.179Z,19.00
2017-10-14T07:49:11.465Z,19.00
2017-10-14T07:51:40.900Z,19.00
2017-10-14T07:54:09.161Z,19.00
2017-10-14T07:56:37.522Z,18.90
2017-10-14T07:59:05.789Z,18.90
2017-10-14T08:01:34.269Z,18.80
2017-10-14T08:04:02.594Z,18.80
2017-10-14T08:06:30.868Z,18.80
2017-10-14T08:08:59.137Z,19.00
2017-10-14T08:11:27.618Z,19.10
2017-10-14T08:13:55.929Z,19.20
2017-10-14T08:16:24.205Z,19.40
2017-10-14T08:18:52.456Z,19.60
2017-10-14T08:21:20.717Z,19.60
2017-10-14T08:23:49.032Z,19.80
2017-10-14T08:26:17.334Z,19.90
2017-10-14T08:28:45.610Z,20.00
2017-10-14T08:31:13.926Z,20.20
2017-10-14T08:33:42.430Z,20.40
2017-10-14T08:36:10.688Z,20.50
2017-10-14T08:38:39.030Z,20.60
2017-10-14T08:41:07.330Z,20.60
2017-10-14T08:43:35.613Z,20.70
2017-10-14T08:46:04.094Z,20.80
2017-10-14T08:48:32.362Z,20.90
2017-10-14T08:51:00.731Z,20.90
2017-10-14T08:53:29.589Z,21.00
2017-10-14T08:55:57.841Z,21.00
2017-10-14T08:58:26.097Z,21.00
2017-10-14T09:00:54.345Z,21.00
2017-10-14T09:03:22.837Z,20.90
2017-10-14T09:05:51.388Z,20.80
2017-10-14T09:08:19.643Z,20.80
2017-10-14T09:10:47.932Z,20.80
2017-10-14T09:13:17.049Z,20.70
2017-10-14T09:15:45.307Z,20.60
2017-10-14T09:18:13.590Z,20.50
2017-10-14T09:20:42.184Z,20.30
2017-10-14T09:23:10.456Z,20.20
2017-10-14T09:25:38.721Z,20.30
2017-10-14T09:28:07.593Z,20.40
2017-10-14T09:30:35.956Z,20.50
2017-10-14T09:33:04.251Z,20.60
2017-10-14T09:35:32.518Z,20.70
2017-10-14T09:38:00.889Z,20.70
2017-10-14T09:40:30.067Z,20.60
2017-10-14T09:42:58.325Z,20.30
2017-10-14T09:45:27.006Z,20.20
2017-10-14T09:47:55.698Z,19.90
2017-10-14T09:50:24.349Z,19.60
2017-10-14T09:52:52.832Z,19.60
2017-10-14T09:55:21.107Z,19.60
2017-10-14T09:57:49.369Z,19.60
2017-10-14T10:00:19.647Z,19.70
2017-10-14T10:02:47.948Z,19.90
2017-10-14T10:05:16.219Z,20.20
2017-10-14T10:07:44.496Z,20.40
2017-10-14T10:10:12.758Z,20.60
2017-10-14T10:12:41.010Z,20.80
2017-10-14T10:15:09.766Z,21.10
2017-10-14T10:17:38.042Z,21.10
2017-10-14T10:20:06.337Z,21.20
2017-10-14T10:22:34.592Z,21.30
2017-10-14T10:25:02.906Z,21.30
2017-10-14T10:27:31.282Z,20.80
2017-10-14T10:29:59.967Z,20.20
2017-10-14T10:32:28.228Z,20.20
2017-10-14T10:34:56.917Z,19.90
2017-10-14T10:37:25.828Z,20.00
2017-10-14T10:39:54.509Z,20.20
2017-10-14T10:42:22.821Z,20.20
2017-10-14T10:44:51.087Z,20.40
2017-10-14T10:47:19.342Z,20.60
2017-10-14T10:49:48.196Z,20.70
2017-10-14T10:52:16.472Z,20.90
2017-10-14T10:54:44.946Z,21.00
2017-10-14T10:57:13.216Z,21.10
2017-10-14T10:59:41.474Z,21.20
2017-10-14T11:02:09.743Z,21.20
2017-10-14T11:04:39.005Z,21.20
2017-10-14T11:07:07.644Z,21.20
2017-10-14T11:09:35.926Z,21.20
2017-10-14T11:12:04.205Z,21.20
2017-10-14T11:14:32.609Z,21.20
2017-10-14T11:17:00.917Z,21.20
2017-10-14T11:19:29.235Z,21.20
2017-10-14T11:21:57.493Z,21.20
2017-10-14T11:24:25.741Z,21.30
2017-10-14T11:26:54.042Z,21.40
2017-10-14T11:29:22.298Z,21.30
2017-10-14T11:31:50.681Z,21.40
2017-10-14T11:34:18.958Z,21.50
2017-10-14T11:36:47.273Z,21.60
2017-10-14T11:39:16.555Z,21.60
2017-10-14T11:41:45.466Z,21.60
2017-10-14T11:44:13.761Z,21.60
2017-10-14T11:46:42.907Z,21.40
2017-10-14T11:49:11.170Z,21.10
2017-10-14T11:51:39.418Z,21.00
2017-10-14T11:54:07.737Z,21.00
2017-10-14T11:56:36.128Z,21.00
2017-10-14T11:59:04.484Z,20.90
2017-10-14T12:01:33.014Z,20.90
2017-10-14T12:04:01.920Z,21.00
2017-10-14T12:06:30.209Z,21.00
2017-10-14T12:08:58.482Z,21.10
2017-10-14T12:11:26.779Z,21.10
2017-10-14T12:13:55.036Z,21.20
2017-10-14T12:16:23.318Z,21.30
2017-10-14T12:18:51.598Z,21.30
2017-10-14T12:21:19.932Z,21.30
2017-10-14T12:23:48.244Z,21.40
2017-10-14T12:26:16.925Z,21.50
2017-10-14T12:28:45.696Z,21.50
2017-10-14T12:31:14.055Z,21.50
2017-10-14T12:33:42.550Z,21.60
2017-10-14T12:36:10.839Z,21.70
2017-10-14T12:38:39.088Z,21.80
2017-10-14T12:41:07.921Z,21.90
2017-10-14T12:43:36.278Z,22.10
2017-10-14T12:46:04.981Z,22.30
2017-10-14T12:48:33.242Z,22.30
2017-10-14T12:51:01.519Z,22.40
2017-10-14T12:53:31.204Z,22.50
2017-10-14T12:55:59.497Z,22.50
2017-10-14T12:58:27.858Z,22.50
2017-10-14T13:00:56.136Z,22.50
2017-10-14T13:03:24.468Z,22.40
2017-10-14T13:05:52.757Z,22.40
2017-10-14T13:08:21.017Z,22.40
2017-10-14T13:10:49.514Z,22.40
2017-10-14T13:13:17.792Z,22.40
2017-10-14T13:15:46.069Z,22.40
2017-10-14T13:18:14.426Z,22.40
2017-10-14T13:20:42.703Z,22.40
2017-10-14T13:23:11.188Z,22.40
2017-10-14T13:25:39.869Z,22.40
2017-10-14T13:28:08.129Z,22.30
2017-10-14T13:30:36.905Z,22.30
2017-10-14T13:33:05.633Z,22.30
2017-10-14T13:35:33.880Z,22.30
2017-10-14T13:38:02.551Z,22.10
2017-10-14T13:40:30.801Z,22.10
2017-10-14T13:42:59.085Z,21.90
2017-10-14T13:45:27.414Z,21.90
2017-10-14T13:47:55.673Z,21.90
2017-10-14T13:50:23.934Z,22.00
2017-10-14T13:52:52.201Z,22.00
2017-10-14T13:55:20.456Z,22.10
2017-10-14T13:57:48.756Z,22.00
2017-10-14T14:00:17.007Z,22.10
2017-10-14T14:02:45.259Z,22.10
2017-10-14T14:05:14.149Z,22.20
2017-10-14T14:07:42.412Z,22.20
2017-10-14T14:10:10.668Z,22.40
2017-10-14T14:12:38.968Z,22.50
2017-10-14T14:15:07.210Z,22.60
2017-10-14T14:17:35.504Z,22.70
2017-10-14T14:20:04.086Z,22.80
2017-10-14T14:22:32.730Z,23.00
2017-10-14T14:25:01.053Z,23.00
2017-10-14T14:27:29.338Z,22.90
2017-10-14T14:29:57.617Z,22.60
2017-10-14T14:32:25.948Z,22.40
2017-10-14T14:34:54.209Z,22.40
2017-10-14T14:37:22.823Z,22.30
2017-10-14T14:39:51.520Z,22.50
2017-10-14T14:42:19.787Z,22.50
2017-10-14T14:44:48.063Z,22.90
2017-10-14T14:47:16.342Z,23.10
2017-10-14T14:49:44.993Z,23.90
2017-10-14T14:52:13.265Z,23.90
2017-10-14T14:54:41.557Z,24.20
2017-10-14T14:57:10.301Z,24.40
2017-10-14T14:59:38.554Z,24.50
2017-10-14T15:02:06.883Z,24.60
2017-10-14T15:04:35.254Z,24.40
2017-10-14T15:07:03.516Z,24.40
2017-10-14T15:09:31.823Z,24.40
2017-10-14T15:12:00.155Z,24.30
2017-10-14T15:14:28.886Z,24.10
2017-10-14T15:16:57.138Z,23.90
2017-10-14T15:19:25.414Z,23.70
2017-10-14T15:21:53.697Z,23.40
2017-10-14T15:24:22.401Z,22.50
2017-10-14T15:26:50.689Z,22.50
2017-10-14T15:29:19.345Z,22.10
2017-10-14T15:31:47.623Z,22.10
2017-10-14T15:34:15.891Z,21.80
2017-10-14T15:36:44.733Z,21.60
2017-10-14T15:39:13.017Z,21.50
2017-10-14T15:41:41.268Z,21.40
2017-10-14T15:44:10.014Z,21.20
2017-10-14T15:46:38.265Z,21.20
2017-10-14T15:49:06.900Z,21.20
2017-10-14T15:51:35.173Z,21.10
2017-10-14T15:54:03.548Z,21.00
2017-10-14T15:56:32.597Z,20.90
2017-10-14T15:59:00.857Z,20.90
2017-10-14T16:01:29.505Z,20.80
2017-10-14T16:03:57.797Z,20.80
2017-10-14T16:06:26.120Z,20.70
2017-10-14T16:08:54.678Z,20.50
2017-10-14T16:11:23.330Z,20.00
2017-10-14T16:13:52.415Z,20.00
2017-10-14T16:16:20.666Z,19.80
2017-10-14T16:18:48.953Z,19.80
2017-10-14T16:21:17.457Z,20.10
2017-10-14T16:23:45.721Z,20.30
2017-10-14T16:26:13.999Z,20.40
2017-10-14T16:28:42.274Z,20.50
2017-10-14T16:31:10.563Z,20.70
2017-10-14T16:33:38.801Z,20.90
2017-10-14T16:36:07.106Z,21.00
2017-10-14T16:38:35.362Z,21.10
2017-10-14T16:41:03.625Z,21.20
2017-10-14T16:43:32.347Z,21.20
2017-10-14T16:46:00.638Z,21.10
2017-10-14T16:48:28.917Z,20.50
2017-10-14T16:50:57.252Z,20.50
2017-10-14T16:53:25.518Z,20.60
2017-10-14T16:55:53.841Z,20.60
2017-10-14T16:58:22.422Z,20.60
2017-10-14T17:00:50.683Z,20.50
2017-10-14T17:03:18.960Z,20.40
2017-10-14T17:05:47.252Z,20.40
2017-10-14T17:08:15.503Z,20.40
2017-10-14T17:10:43.858Z,20.30
2017-10-14T17:13:12.098Z,20.20
2017-10-14T17:15:40.748Z,20.00
2017-10-14T17:18:09.067Z,20.00
2017-10-14T17:20:37.729Z,19.80
2017-10-14T17:23:05.981Z,19.80
2017-10-14T17:25:34.307Z,19.80
2017-10-14T17:28:03.337Z,19.60
2017-10-14T17:30:31.592Z,19.30
2017-10-14T17:32:59.911Z,19.10
2017-10-14T17:35:28.136Z,19.00
2017-10-14T17:37:56.425Z,19.10
2017-10-14T17:40:24.675Z,18.90
2017-10-14T17:42:53.320Z,19.00
2017-10-14T17:45:21.609Z,19.00
2017-10-14T17:47:49.854Z,19.10
2017-10-14T17:50:18.114Z,19.00
2017-10-14T17:52:46.491Z,18.90
2017-10-14T17:55:15.294Z,18.90
2017-10-14T17:57:43.814Z,19.00
2017-10-14T18:00:12.398Z,19.00
2017-10-14T18:02:40.665Z,18.90
2017-10-14T18:05:09.258Z,18.90
2017-10-14T18:07:37.515Z,18.80
2017-10-14T18:10:05.808Z,18.70
2017-10-14T18:12:34.089Z,18.60
2017-10-14T18:15:02.347Z,18.70
2017-10-14T18:17:30.610Z,18.60
2017-10-14T18:19:59.114Z,18.50
2017-10-14T18:22:27.392Z,18.60
2017-10-14T18:24:55.651Z,18.60
2017-10-14T18:27:23.900Z,18.70
2017-10-14T18:29:52.169Z,18.80
2017-10-14T18:32:20.474Z,18.90
2017-10-14T18:34:48.757Z,18.90
2017-10-14T18:37:17.161Z,18.90
2017-10-14T18:39:45.412Z,18.90
2017-10-14T18:42:13.690Z,18.90
2017-10-14T18:44:41.982Z,18.80
2017-10-14T18:47:10.653Z,18.70
2017-10-14T18:49:38.895Z,18.70
2017-10-14T18:52:07.209Z,18.80
2017-10-14T18:54:35.450Z,18.70
2017-10-14T18:57:03.848Z,18.60
2017-10-14T18:59:32.324Z,18.60
2017-10-14T19:02:00.595Z,18.60
2017-10-14T19:04:28.853Z,18.60
2017-10-14T19:06:57.480Z,18.60
2017-10-14T19:09:25.855Z,18.60
2017-10-14T19:11:54.104Z,18.60
2017-10-14T19:14:22.378Z,18.70
2017-10-14T19:16:50.642Z,18.70
2017-10-14T19:19:19.051Z,18.70
2017-10-14T19:21:47.341Z,18.70
2017-10-14T19:24:15.936Z,18.80
2017-10-14T19:26:44.200Z,18.80
2017-10-14T19:29:12.515Z,18.80
2017-10-14T19:31:40.921Z,18.70
2017-10-14T19:34:09.181Z,18.70
2017-10-14T19:36:37.715Z,18.70
2017-10-14T19:39:06.298Z,18.60
2017-10-14T19:41:34.768Z,18.50
2017-10-14T19:44:03.029Z,18.50
2017-10-14T19:46:31.672Z,18.50
2017-10-14T19:49:00.898Z,18.20
2017-10-14T19:51:29.186Z,18.30
2017-10-14T19:53:57.448Z,18.10
2017-10-14T19:56:28.112Z,18.10
2017-10-14T19:58:56.816Z,18.10
2017-10-14T20:01:25.093Z,18.20
2017-10-14T20:03:53.355Z,18.20
2017-10-14T20:06:21.650Z,18.40
2017-10-14T20:08:49.901Z,18.40
2017-10-14T20:11:18.185Z,18.40
2017-10-14T20:13:46.501Z,18.50
2017-10-14T20:16:14.749Z,18.50
2017-10-14T20:18:43.007Z,18.50
2017-10-14T20:21:11.289Z,18.50
2017-10-14T20:23:39.537Z,18.60
2017-10-14T20:26:07.800Z,18.40
2017-10-14T20:28:36.645Z,18.40
2017-10-14T20:31:05.462Z,18.40
2017-10-14T20:33:33.780Z,18.30
2017-10-14T20:36:02.169Z,18.30
2017-10-14T20:38:30.436Z,18.30
2017-10-14T20:40:58.729Z,18.00
2017-10-14T20:43:27.435Z,17.20
2017-10-14T20:45:55.712Z,17.20
2017-10-14T20:48:24.371Z,16.90
2017-10-14T20:50:52.636Z,16.80
2017-10-14T20:53:20.896Z,16.90
2017-10-14T20:55:49.403Z,16.90
2017-10-14T20:58:18.391Z,17.00
2017-10-14T21:00:46.668Z,17.20
2017-10-14T21:03:15.188Z,17.40
2017-10-14T21:05:43.430Z,17.70
2017-10-14T21:08:11.685Z,18.40
2017-10-14T21:10:39.957Z,19.30
2017-10-14T21:13:08.217Z,19.80
2017-10-14T21:15:37.233Z,20.10
2017-10-14T21:18:05.736Z,20.20
2017-10-14T21:20:33.986Z,20.30
2017-10-14T21:23:02.265Z,20.20
2017-10-14T21:25:30.553Z,20.10
2017-10-14T21:27:58.823Z,20.10
2017-10-14T21:30:27.160Z,19.90
2017-10-14T21:32:55.440Z,19.90
2017-10-14T21:35:23.696Z,20.00
2017-10-14T21:37:52.354Z,19.50
2017-10-14T21:40:20.622Z,19.50
2017-10-14T21:42:49.100Z,19.40
2017-10-14T21:45:17.370Z,19.50
2017-10-14T21:47:46.273Z,19.40
2017-10-14T21:50:14.564Z,19.00
2017-10-14T21:52:42.835Z,19.00
2017-10-14T21:55:11.116Z,18.90
2017-10-14T21:57:39.394Z,18.70
2017-10-14T22:00:08.143Z,17.90
2017-10-14T22:02:36.888Z,17.30
2017-10-14T22:05:05.309Z,16.90
2017-10-14T22:07:33.569Z,16.70
2017-10-14T22:10:01.877Z,16.90
2017-10-14T22:12:30.162Z,17.20
2017-10-14T22:14:59.343Z,18.20
2017-10-14T22:17:27.633Z,18.20
2017-10-14T22:19:56.327Z,19.00
2017-10-14T22:22:24.865Z,19.00
2017-10-14T22:24:53.166Z,19.30
2017-10-14T22:27:21.636Z,19.30
2017-10-14T22:29:49.921Z,19.20
2017-10-14T22:32:18.227Z,19.00
2017-10-14T22:34:46.715Z,18.60
2017-10-14T22:37:14.986Z,18.00
2017-10-14T22:39:43.593Z,17.30
2017-10-14T22:42:11.869Z,16.90
2017-10-14T22:44:40.141Z,17.20
2017-10-14T22:47:08.829Z,17.40
2017-10-14T22:49:37.134Z,17.40
2017-10-14T22:52:05.432Z,17.50
2017-10-14T22:54:33.757Z,17.70
2017-10-14T22:57:02.321Z,17.80
2017-10-14T22:59:30.647Z,17.80
2017-10-14T23:01:58.962Z,17.90
2017-10-14T23:04:27.675Z,18.00
2017-10-14T23:06:56.343Z,18.10
2017-10-14T23:09:24.653Z,18.10
2017-10-14T23:11:53.305Z,18.40
2017-10-14T23:14:22.534Z,18.40
2017-10-14T23:16:50.812Z,18.40
2017-10-14T23:19:19.312Z,18.60
2017-10-14T23:21:47.779Z,18.70
2017-10-14T23:24:16.092Z,18.80
2017-10-14T23:26:44.365Z,18.80
2017-10-14T23:29:12.624Z,18.80
2017-10-14T23:31:40.909Z,18.70
2017-10-14T23:34:09.183Z,18.70
2017-10-14T23:36:37.444Z,18.70
2017-10-14T23:39:05.779Z,18.70
2017-10-14T23:41:34.043Z,18.60
2017-10-14T23:44:02.756Z,18.50
2017-10-14T23:46:31.236Z,18.50
2017-10-14T23:48:59.905Z,18.60
2017-10-14T23:51:29.233Z,18.60
2017-10-14T23:53:57.478Z,18.50
2017-10-14T23:56:26.033Z,18.50
2017-10-14T23:58:54.304Z,18.40
